sensor_id;sensor_type;location;lat;lon;timestamp;P1;durP1;ratioP1;P2;durP2;ratioP2
26484;SDS011;18083;50.560;7.262;2023-05-07T00:00:48;4.67;;;4.05;;
26484;SDS011;18083;50.560;7.262;2023-05-07T00:03:16;6.62;;;4.10;;
26484;SDS011;18083;50.560;7.262;2023-05-07T00:05:43;6.67;;;4.12;;
26484;SDS011;18083;50.560;7.262;2023-05-07T00:08:10;3.98;;;3.30;;
26484;SDS011;18083;50.560;7.262;2023-05-07T00:10:37;4.12;;;3.72;;
26484;SDS011;18083;50.560;7.262;2023-05-07T00:13:05;3.85;;;3.22;;
26484;SDS011;18083;50.560;7.262;2023-05-07T00:15:32;4.42;;;3.30;;
26484;SDS011;18083;50.560;7.262;2023-05-07T00:17:59;4.25;;;2.83;;
26484;SDS011;18083;50.560;7.262;2023-05-07T00:20:27;5.75;;;3.25;;
26484;SDS011;18083;50.560;7.262;2023-05-07T00:22:54;4.80;;;3.55;;
26484;SDS011;18083;50.560;7.262;2023-05-07T00:25:21;3.60;;;3.30;;
26484;SDS011;18083;50.560;7.262;2023-05-07T00:27:49;4.55;;;3.27;;
26484;SDS011;18083;50.560;7.262;2023-05-07T00:30:16;7.58;;;4.12;;
26484;SDS011;18083;50.560;7.262;2023-05-07T00:32:43;4.08;;;3.05;;
26484;SDS011;18083;50.560;7.262;2023-05-07T00:35:12;4.28;;;3.08;;
26484;SDS011;18083;50.560;7.262;2023-05-07T00:37:39;8.10;;;3.12;;
26484;SDS011;18083;50.560;7.262;2023-05-07T00:40:07;5.15;;;3.10;;
26484;SDS011;18083;50.560;7.262;2023-05-07T00:42:34;5.60;;;4.10;;
26484;SDS011;18083;50.560;7.262;2023-05-07T00:45:02;3.65;;;3.22;;
26484;SDS011;18083;50.560;7.262;2023-05-07T00:47:29;6.10;;;3.70;;
26484;SDS011;18083;50.560;7.262;2023-05-07T00:49:56;4.97;;;3.83;;
26484;SDS011;18083;50.560;7.262;2023-05-07T00:52:24;5.92;;;4.78;;
26484;SDS011;18083;50.560;7.262;2023-05-07T00:54:52;8.80;;;5.05;;
26484;SDS011;18083;50.560;7.262;2023-05-07T00:57:20;5.83;;;5.28;;
26484;SDS011;18083;50.560;7.262;2023-05-07T00:59:48;8.28;;;5.72;;
26484;SDS011;18083;50.560;7.262;2023-05-07T01:02:16;6.40;;;5.78;;
26484;SDS011;18083;50.560;7.262;2023-05-07T01:04:43;7.03;;;5.85;;
26484;SDS011;18083;50.560;7.262;2023-05-07T01:07:11;8.60;;;4.83;;
26484;SDS011;18083;50.560;7.262;2023-05-07T01:09:39;9.53;;;4.85;;
26484;SDS011;18083;50.560;7.262;2023-05-07T01:12:07;5.58;;;3.92;;
26484;SDS011;18083;50.560;7.262;2023-05-07T01:14:35;4.85;;;3.80;;
26484;SDS011;18083;50.560;7.262;2023-05-07T01:17:02;4.42;;;3.87;;
26484;SDS011;18083;50.560;7.262;2023-05-07T01:19:31;5.37;;;4.10;;
26484;SDS011;18083;50.560;7.262;2023-05-07T01:22:03;6.25;;;3.42;;
26484;SDS011;18083;50.560;7.262;2023-05-07T01:24:27;5.62;;;3.55;;
26484;SDS011;18083;50.560;7.262;2023-05-07T01:26:54;8.93;;;4.72;;
26484;SDS011;18083;50.560;7.262;2023-05-07T01:29:21;5.83;;;3.98;;
26484;SDS011;18083;50.560;7.262;2023-05-07T01:31:49;6.72;;;4.28;;
26484;SDS011;18083;50.560;7.262;2023-05-07T01:34:20;6.15;;;4.08;;
26484;SDS011;18083;50.560;7.262;2023-05-07T01:36:48;5.25;;;4.75;;
26484;SDS011;18083;50.560;7.262;2023-05-07T01:39:16;4.58;;;4.17;;
26484;SDS011;18083;50.560;7.262;2023-05-07T01:41:44;7.10;;;4.60;;
26484;SDS011;18083;50.560;7.262;2023-05-07T01:44:12;6.42;;;4.25;;
26484;SDS011;18083;50.560;7.262;2023-05-07T01:46:39;4.35;;;3.92;;
26484;SDS011;18083;50.560;7.262;2023-05-07T01:49:07;6.40;;;4.80;;
26484;SDS011;18083;50.560;7.262;2023-05-07T01:51:34;6.33;;;4.28;;
26484;SDS011;18083;50.560;7.262;2023-05-07T01:54:02;6.20;;;4.12;;
26484;SDS011;18083;50.560;7.262;2023-05-07T01:56:29;5.55;;;3.67;;
26484;SDS011;18083;50.560;7.262;2023-05-07T01:58:56;5.35;;;4.08;;
26484;SDS011;18083;50.560;7.262;2023-05-07T02:01:24;3.35;;;3.10;;
26484;SDS011;18083;50.560;7.262;2023-05-07T02:03:51;4.67;;;4.28;;
26484;SDS011;18083;50.560;7.262;2023-05-07T02:06:19;6.08;;;3.62;;
26484;SDS011;18083;50.560;7.262;2023-05-07T02:08:47;6.17;;;3.98;;
26484;SDS011;18083;50.560;7.262;2023-05-07T02:11:14;3.95;;;3.47;;
26484;SDS011;18083;50.560;7.262;2023-05-07T02:13:41;6.22;;;3.40;;
26484;SDS011;18083;50.560;7.262;2023-05-07T02:16:09;4.03;;;3.37;;
26484;SDS011;18083;50.560;7.262;2023-05-07T02:18:37;5.17;;;3.62;;
26484;SDS011;18083;50.560;7.262;2023-05-07T02:21:04;5.75;;;3.27;;
26484;SDS011;18083;50.560;7.262;2023-05-07T02:23:31;5.55;;;3.58;;
26484;SDS011;18083;50.560;7.262;2023-05-07T02:25:59;6.17;;;4.40;;
26484;SDS011;18083;50.560;7.262;2023-05-07T02:28:26;4.12;;;3.72;;
26484;SDS011;18083;50.560;7.262;2023-05-07T02:30:53;3.85;;;3.40;;
26484;SDS011;18083;50.560;7.262;2023-05-07T02:33:21;6.78;;;4.37;;
26484;SDS011;18083;50.560;7.262;2023-05-07T02:35:48;11.05;;;4.53;;
26484;SDS011;18083;50.560;7.262;2023-05-07T02:38:16;4.67;;;4.22;;
26484;SDS011;18083;50.560;7.262;2023-05-07T02:40:43;7.53;;;4.22;;
26484;SDS011;18083;50.560;7.262;2023-05-07T02:43:10;7.25;;;4.62;;
26484;SDS011;18083;50.560;7.262;2023-05-07T02:45:37;5.33;;;4.75;;
26484;SDS011;18083;50.560;7.262;2023-05-07T02:48:05;5.47;;;4.80;;
26484;SDS011;18083;50.560;7.262;2023-05-07T02:50:32;15.28;;;5.95;;
26484;SDS011;18083;50.560;7.262;2023-05-07T02:52:59;8.28;;;5.00;;
26484;SDS011;18083;50.560;7.262;2023-05-07T02:55:27;7.90;;;5.85;;
26484;SDS011;18083;50.560;7.262;2023-05-07T02:57:54;10.03;;;5.72;;
26484;SDS011;18083;50.560;7.262;2023-05-07T03:00:21;7.97;;;5.37;;
26484;SDS011;18083;50.560;7.262;2023-05-07T03:02:49;7.75;;;5.08;;
26484;SDS011;18083;50.560;7.262;2023-05-07T03:05:16;6.85;;;5.08;;
26484;SDS011;18083;50.560;7.262;2023-05-07T03:07:44;8.68;;;5.20;;
26484;SDS011;18083;50.560;7.262;2023-05-07T03:10:12;10.32;;;5.17;;
26484;SDS011;18083;50.560;7.262;2023-05-07T03:12:39;7.97;;;5.30;;
26484;SDS011;18083;50.560;7.262;2023-05-07T03:15:07;8.28;;;5.78;;
26484;SDS011;18083;50.560;7.262;2023-05-07T03:17:34;9.10;;;5.90;;
26484;SDS011;18083;50.560;7.262;2023-05-07T03:20:02;8.00;;;6.47;;
26484;SDS011;18083;50.560;7.262;2023-05-07T03:22:29;11.15;;;5.55;;
26484;SDS011;18083;50.560;7.262;2023-05-07T03:24:56;7.17;;;5.40;;
26484;SDS011;18083;50.560;7.262;2023-05-07T03:27:24;7.97;;;4.60;;
26484;SDS011;18083;50.560;7.262;2023-05-07T03:29:51;9.23;;;5.47;;
26484;SDS011;18083;50.560;7.262;2023-05-07T03:32:18;7.20;;;4.80;;
26484;SDS011;18083;50.560;7.262;2023-05-07T03:34:46;7.97;;;5.90;;
26484;SDS011;18083;50.560;7.262;2023-05-07T03:37:13;9.70;;;5.10;;
26484;SDS011;18083;50.560;7.262;2023-05-07T03:39:40;6.97;;;5.65;;
26484;SDS011;18083;50.560;7.262;2023-05-07T03:42:07;6.10;;;4.87;;
26484;SDS011;18083;50.560;7.262;2023-05-07T03:44:35;7.37;;;4.95;;
26484;SDS011;18083;50.560;7.262;2023-05-07T03:47:05;5.65;;;4.12;;
26484;SDS011;18083;50.560;7.262;2023-05-07T03:49:32;7.28;;;5.12;;
26484;SDS011;18083;50.560;7.262;2023-05-07T03:52:00;7.17;;;5.37;;
26484;SDS011;18083;50.560;7.262;2023-05-07T03:54:27;9.20;;;5.33;;
26484;SDS011;18083;50.560;7.262;2023-05-07T03:56:54;7.20;;;5.80;;
26484;SDS011;18083;50.560;7.262;2023-05-07T03:59:21;6.35;;;5.10;;
26484;SDS011;18083;50.560;7.262;2023-05-07T04:01:49;6.58;;;4.97;;
26484;SDS011;18083;50.560;7.262;2023-05-07T04:04:16;5.83;;;4.65;;
26484;SDS011;18083;50.560;7.262;2023-05-07T04:06:43;12.25;;;5.00;;
26484;SDS011;18083;50.560;7.262;2023-05-07T04:09:11;8.10;;;5.95;;
26484;SDS011;18083;50.560;7.262;2023-05-07T04:11:38;7.37;;;5.47;;
26484;SDS011;18083;50.560;7.262;2023-05-07T04:14:06;9.33;;;6.42;;
26484;SDS011;18083;50.560;7.262;2023-05-07T04:16:34;12.45;;;7.33;;
26484;SDS011;18083;50.560;7.262;2023-05-07T04:19:01;10.15;;;6.80;;
26484;SDS011;18083;50.560;7.262;2023-05-07T04:21:29;8.00;;;6.12;;
26484;SDS011;18083;50.560;7.262;2023-05-07T04:23:56;7.97;;;6.37;;
26484;SDS011;18083;50.560;7.262;2023-05-07T04:29:10;6.97;;;4.62;;
26484;SDS011;18083;50.560;7.262;2023-05-07T04:31:37;5.92;;;4.53;;
26484;SDS011;18083;50.560;7.262;2023-05-07T04:34:04;5.50;;;4.83;;
26484;SDS011;18083;50.560;7.262;2023-05-07T04:36:32;5.17;;;4.22;;
26484;SDS011;18083;50.560;7.262;2023-05-07T04:39:00;4.50;;;3.98;;
26484;SDS011;18083;50.560;7.262;2023-05-07T04:41:27;5.97;;;4.15;;
26484;SDS011;18083;50.560;7.262;2023-05-07T04:43:54;5.53;;;4.58;;
26484;SDS011;18083;50.560;7.262;2023-05-07T04:46:23;7.22;;;4.92;;
26484;SDS011;18083;50.560;7.262;2023-05-07T04:48:51;8.35;;;4.87;;
26484;SDS011;18083;50.560;7.262;2023-05-07T04:51:18;6.75;;;4.62;;
26484;SDS011;18083;50.560;7.262;2023-05-07T04:53:45;5.92;;;5.33;;
26484;SDS011;18083;50.560;7.262;2023-05-07T04:56:12;6.28;;;5.28;;
26484;SDS011;18083;50.560;7.262;2023-05-07T04:58:40;5.60;;;4.72;;
26484;SDS011;18083;50.560;7.262;2023-05-07T05:01:07;6.75;;;5.25;;
26484;SDS011;18083;50.560;7.262;2023-05-07T05:03:34;7.62;;;5.15;;
26484;SDS011;18083;50.560;7.262;2023-05-07T05:06:01;7.87;;;4.80;;
26484;SDS011;18083;50.560;7.262;2023-05-07T05:08:29;8.50;;;4.92;;
26484;SDS011;18083;50.560;7.262;2023-05-07T05:10:57;5.53;;;4.95;;
26484;SDS011;18083;50.560;7.262;2023-05-07T05:13:24;5.92;;;5.33;;
26484;SDS011;18083;50.560;7.262;2023-05-07T05:15:51;6.70;;;4.92;;
26484;SDS011;18083;50.560;7.262;2023-05-07T05:18:19;8.73;;;5.97;;
26484;SDS011;18083;50.560;7.262;2023-05-07T05:20:46;7.55;;;6.50;;
26484;SDS011;18083;50.560;7.262;2023-05-07T05:23:14;12.35;;;7.03;;
26484;SDS011;18083;50.560;7.262;2023-05-07T05:25:41;8.95;;;6.03;;
26484;SDS011;18083;50.560;7.262;2023-05-07T05:28:08;11.05;;;6.78;;
26484;SDS011;18083;50.560;7.262;2023-05-07T05:30:35;9.15;;;5.75;;
26484;SDS011;18083;50.560;7.262;2023-05-07T05:33:03;6.17;;;5.47;;
26484;SDS011;18083;50.560;7.262;2023-05-07T05:35:30;7.83;;;5.05;;
26484;SDS011;18083;50.560;7.262;2023-05-07T05:37:58;7.17;;;6.00;;
26484;SDS011;18083;50.560;7.262;2023-05-07T05:40:25;5.87;;;5.22;;
26484;SDS011;18083;50.560;7.262;2023-05-07T05:42:52;8.53;;;5.70;;
26484;SDS011;18083;50.560;7.262;2023-05-07T05:45:19;13.93;;;5.45;;
26484;SDS011;18083;50.560;7.262;2023-05-07T05:47:47;7.28;;;4.78;;
26484;SDS011;18083;50.560;7.262;2023-05-07T05:50:14;6.30;;;4.72;;
26484;SDS011;18083;50.560;7.262;2023-05-07T05:52:41;5.15;;;4.62;;
26484;SDS011;18083;50.560;7.262;2023-05-07T05:55:09;5.30;;;4.80;;
26484;SDS011;18083;50.560;7.262;2023-05-07T05:57:36;5.95;;;5.40;;
26484;SDS011;18083;50.560;7.262;2023-05-07T06:00:03;7.33;;;5.00;;
26484;SDS011;18083;50.560;7.262;2023-05-07T06:02:31;10.72;;;4.75;;
26484;SDS011;18083;50.560;7.262;2023-05-07T06:04:58;9.83;;;5.00;;
26484;SDS011;18083;50.560;7.262;2023-05-07T06:07:26;6.83;;;4.90;;
26484;SDS011;18083;50.560;7.262;2023-05-07T06:09:53;9.73;;;4.85;;
26484;SDS011;18083;50.560;7.262;2023-05-07T06:12:21;6.15;;;4.80;;
26484;SDS011;18083;50.560;7.262;2023-05-07T06:14:48;5.35;;;4.85;;
26484;SDS011;18083;50.560;7.262;2023-05-07T06:17:16;7.60;;;6.83;;
26484;SDS011;18083;50.560;7.262;2023-05-07T06:19:43;7.67;;;5.30;;
26484;SDS011;18083;50.560;7.262;2023-05-07T06:22:10;7.33;;;5.42;;
26484;SDS011;18083;50.560;7.262;2023-05-07T06:24:38;11.65;;;5.72;;
26484;SDS011;18083;50.560;7.262;2023-05-07T06:27:05;7.47;;;5.25;;
26484;SDS011;18083;50.560;7.262;2023-05-07T06:29:32;6.97;;;5.50;;
26484;SDS011;18083;50.560;7.262;2023-05-07T06:32:09;7.33;;;5.15;;
26484;SDS011;18083;50.560;7.262;2023-05-07T06:34:36;7.37;;;5.62;;
26484;SDS011;18083;50.560;7.262;2023-05-07T06:37:04;8.18;;;5.65;;
26484;SDS011;18083;50.560;7.262;2023-05-07T06:39:31;11.97;;;6.60;;
26484;SDS011;18083;50.560;7.262;2023-05-07T06:41:59;9.88;;;6.50;;
26484;SDS011;18083;50.560;7.262;2023-05-07T06:44:28;10.80;;;7.20;;
26484;SDS011;18083;50.560;7.262;2023-05-07T06:46:55;8.43;;;6.03;;
26484;SDS011;18083;50.560;7.262;2023-05-07T06:49:23;11.18;;;6.87;;
26484;SDS011;18083;50.560;7.262;2023-05-07T06:51:50;8.18;;;6.28;;
26484;SDS011;18083;50.560;7.262;2023-05-07T06:54:17;9.18;;;6.87;;
26484;SDS011;18083;50.560;7.262;2023-05-07T06:56:45;9.28;;;7.58;;
26484;SDS011;18083;50.560;7.262;2023-05-07T06:59:12;10.08;;;7.70;;
26484;SDS011;18083;50.560;7.262;2023-05-07T07:01:39;10.90;;;7.85;;
26484;SDS011;18083;50.560;7.262;2023-05-07T07:04:06;10.70;;;7.45;;
26484;SDS011;18083;50.560;7.262;2023-05-07T07:06:34;9.88;;;7.60;;
26484;SDS011;18083;50.560;7.262;2023-05-07T07:09:01;7.60;;;6.87;;
26484;SDS011;18083;50.560;7.262;2023-05-07T07:11:28;11.30;;;7.83;;
26484;SDS011;18083;50.560;7.262;2023-05-07T07:13:55;7.20;;;5.60;;
26484;SDS011;18083;50.560;7.262;2023-05-07T07:16:23;6.92;;;6.22;;
26484;SDS011;18083;50.560;7.262;2023-05-07T07:18:50;7.28;;;6.47;;
26484;SDS011;18083;50.560;7.262;2023-05-07T07:21:17;10.98;;;6.70;;
26484;SDS011;18083;50.560;7.262;2023-05-07T07:23:45;9.10;;;6.78;;
26484;SDS011;18083;50.560;7.262;2023-05-07T07:26:12;8.15;;;6.17;;
26484;SDS011;18083;50.560;7.262;2023-05-07T07:28:47;9.73;;;6.72;;
26484;SDS011;18083;50.560;7.262;2023-05-07T07:31:11;9.40;;;6.95;;
26484;SDS011;18083;50.560;7.262;2023-05-07T07:33:39;7.12;;;6.00;;
26484;SDS011;18083;50.560;7.262;2023-05-07T07:36:06;9.50;;;6.55;;
26484;SDS011;18083;50.560;7.262;2023-05-07T07:38:34;7.12;;;5.35;;
26484;SDS011;18083;50.560;7.262;2023-05-07T07:41:01;5.58;;;4.70;;
26484;SDS011;18083;50.560;7.262;2023-05-07T07:43:29;5.10;;;4.10;;
26484;SDS011;18083;50.560;7.262;2023-05-07T07:45:56;5.03;;;4.55;;
26484;SDS011;18083;50.560;7.262;2023-05-07T07:48:23;8.48;;;4.95;;
26484;SDS011;18083;50.560;7.262;2023-05-07T07:50:51;4.92;;;3.67;;
26484;SDS011;18083;50.560;7.262;2023-05-07T07:53:18;6.05;;;3.42;;
26484;SDS011;18083;50.560;7.262;2023-05-07T07:55:46;5.17;;;4.00;;
26484;SDS011;18083;50.560;7.262;2023-05-07T07:58:13;5.87;;;3.65;;
26484;SDS011;18083;50.560;7.262;2023-05-07T08:00:40;4.72;;;3.55;;
26484;SDS011;18083;50.560;7.262;2023-05-07T08:03:10;4.70;;;3.67;;
26484;SDS011;18083;50.560;7.262;2023-05-07T08:05:37;12.98;;;3.47;;
26484;SDS011;18083;50.560;7.262;2023-05-07T08:08:05;5.22;;;3.27;;
26484;SDS011;18083;50.560;7.262;2023-05-07T08:10:32;4.87;;;4.05;;
26484;SDS011;18083;50.560;7.262;2023-05-07T08:13:01;5.65;;;4.00;;
26484;SDS011;18083;50.560;7.262;2023-05-07T08:15:29;4.30;;;3.30;;
26484;SDS011;18083;50.560;7.262;2023-05-07T08:17:57;3.02;;;2.83;;
26484;SDS011;18083;50.560;7.262;2023-05-07T08:20:26;3.87;;;3.25;;
26484;SDS011;18083;50.560;7.262;2023-05-07T08:22:53;7.50;;;3.25;;
26484;SDS011;18083;50.560;7.262;2023-05-07T08:25:20;6.17;;;3.20;;
26484;SDS011;18083;50.560;7.262;2023-05-07T08:27:48;4.67;;;3.67;;
26484;SDS011;18083;50.560;7.262;2023-05-07T08:30:15;3.35;;;3.05;;
26484;SDS011;18083;50.560;7.262;2023-05-07T08:32:42;3.27;;;2.95;;
26484;SDS011;18083;50.560;7.262;2023-05-07T08:35:10;5.35;;;3.30;;
26484;SDS011;18083;50.560;7.262;2023-05-07T08:37:37;3.65;;;3.00;;
26484;SDS011;18083;50.560;7.262;2023-05-07T08:40:05;3.30;;;2.90;;
26484;SDS011;18083;50.560;7.262;2023-05-07T08:42:33;3.83;;;2.47;;
26484;SDS011;18083;50.560;7.262;2023-05-07T08:45:01;5.15;;;2.85;;
26484;SDS011;18083;50.560;7.262;2023-05-07T08:47:35;3.50;;;2.80;;
26484;SDS011;18083;50.560;7.262;2023-05-07T08:50:00;3.15;;;2.58;;
26484;SDS011;18083;50.560;7.262;2023-05-07T08:52:27;2.87;;;2.62;;
26484;SDS011;18083;50.560;7.262;2023-05-07T08:54:54;5.70;;;3.10;;
26484;SDS011;18083;50.560;7.262;2023-05-07T08:57:22;3.45;;;3.15;;
26484;SDS011;18083;50.560;7.262;2023-05-07T08:59:50;4.87;;;2.98;;
26484;SDS011;18083;50.560;7.262;2023-05-07T09:02:18;4.30;;;3.00;;
26484;SDS011;18083;50.560;7.262;2023-05-07T09:04:45;2.95;;;2.75;;
26484;SDS011;18083;50.560;7.262;2023-05-07T09:07:12;2.90;;;2.58;;
26484;SDS011;18083;50.560;7.262;2023-05-07T09:09:40;4.25;;;2.50;;
26484;SDS011;18083;50.560;7.262;2023-05-07T09:12:07;11.95;;;3.22;;
26484;SDS011;18083;50.560;7.262;2023-05-07T09:14:35;2.47;;;2.25;;
26484;SDS011;18083;50.560;7.262;2023-05-07T09:17:02;3.33;;;2.10;;
26484;SDS011;18083;50.560;7.262;2023-05-07T09:19:30;3.55;;;2.77;;
26484;SDS011;18083;50.560;7.262;2023-05-07T09:22:00;5.40;;;2.30;;
26484;SDS011;18083;50.560;7.262;2023-05-07T09:24:28;3.87;;;2.37;;
26484;SDS011;18083;50.560;7.262;2023-05-07T09:26:57;3.37;;;2.67;;
26484;SDS011;18083;50.560;7.262;2023-05-07T09:29:25;5.45;;;2.37;;
26484;SDS011;18083;50.560;7.262;2023-05-07T09:31:54;2.72;;;2.10;;
26484;SDS011;18083;50.560;7.262;2023-05-07T09:34:22;2.40;;;2.20;;
26484;SDS011;18083;50.560;7.262;2023-05-07T09:36:49;2.77;;;2.05;;
26484;SDS011;18083;50.560;7.262;2023-05-07T09:39:16;8.25;;;2.98;;
26484;SDS011;18083;50.560;7.262;2023-05-07T09:41:44;3.45;;;2.87;;
26484;SDS011;18083;50.560;7.262;2023-05-07T09:44:12;2.55;;;2.35;;
26484;SDS011;18083;50.560;7.262;2023-05-07T09:46:41;3.60;;;2.65;;
26484;SDS011;18083;50.560;7.262;2023-05-07T09:49:10;2.55;;;2.35;;
26484;SDS011;18083;50.560;7.262;2023-05-07T09:51:47;2.45;;;2.25;;
26484;SDS011;18083;50.560;7.262;2023-05-07T09:54:14;4.37;;;2.22;;
26484;SDS011;18083;50.560;7.262;2023-05-07T09:56:42;5.05;;;2.25;;
26484;SDS011;18083;50.560;7.262;2023-05-07T09:59:12;3.00;;;2.02;;
26484;SDS011;18083;50.560;7.262;2023-05-07T10:01:40;2.52;;;2.12;;
26484;SDS011;18083;50.560;7.262;2023-05-07T10:04:08;3.58;;;2.52;;
26484;SDS011;18083;50.560;7.262;2023-05-07T10:06:36;4.12;;;1.80;;
26484;SDS011;18083;50.560;7.262;2023-05-07T10:09:04;3.70;;;2.10;;
26484;SDS011;18083;50.560;7.262;2023-05-07T10:11:32;2.35;;;1.92;;
26484;SDS011;18083;50.560;7.262;2023-05-07T10:14:00;3.58;;;1.80;;
26484;SDS011;18083;50.560;7.262;2023-05-07T10:16:32;1.90;;;1.80;;
26484;SDS011;18083;50.560;7.262;2023-05-07T10:18:58;4.00;;;2.33;;
26484;SDS011;18083;50.560;7.262;2023-05-07T10:21:26;3.98;;;2.50;;
26484;SDS011;18083;50.560;7.262;2023-05-07T10:23:58;2.58;;;2.37;;
26484;SDS011;18083;50.560;7.262;2023-05-07T10:26:27;2.52;;;2.33;;
26484;SDS011;18083;50.560;7.262;2023-05-07T10:29:02;2.67;;;2.00;;
26484;SDS011;18083;50.560;7.262;2023-05-07T10:33:53;3.52;;;2.10;;
26484;SDS011;18083;50.560;7.262;2023-05-07T10:36:21;4.40;;;1.75;;
26484;SDS011;18083;50.560;7.262;2023-05-07T10:38:49;2.72;;;2.47;;
26484;SDS011;18083;50.560;7.262;2023-05-07T10:41:16;3.45;;;1.60;;
26484;SDS011;18083;50.560;7.262;2023-05-07T10:43:45;3.27;;;2.70;;
26484;SDS011;18083;50.560;7.262;2023-05-07T10:46:16;1.77;;;1.67;;
26484;SDS011;18083;50.560;7.262;2023-05-07T10:51:33;2.33;;;1.90;;
26484;SDS011;18083;50.560;7.262;2023-05-07T10:56:41;1.82;;;1.67;;
26484;SDS011;18083;50.560;7.262;2023-05-07T11:01:54;1.70;;;1.60;;
26484;SDS011;18083;50.560;7.262;2023-05-07T11:04:23;6.53;;;1.80;;
26484;SDS011;18083;50.560;7.262;2023-05-07T11:15:08;1.45;;;1.35;;
26484;SDS011;18083;50.560;7.262;2023-05-07T11:17:59;1.85;;;1.20;;
26484;SDS011;18083;50.560;7.262;2023-05-07T11:23:55;2.80;;;1.10;;
26484;SDS011;18083;50.560;7.262;2023-05-07T11:25:38;1.40;;;1.30;;
26484;SDS011;18083;50.560;7.262;2023-05-07T11:28:08;2.02;;;1.45;;
26484;SDS011;18083;50.560;7.262;2023-05-07T11:30:36;2.08;;;1.37;;
26484;SDS011;18083;50.560;7.262;2023-05-07T11:33:05;1.05;;;1.05;;
26484;SDS011;18083;50.560;7.262;2023-05-07T11:35:33;1.67;;;1.32;;
26484;SDS011;18083;50.560;7.262;2023-05-07T11:38:00;1.27;;;1.10;;
26484;SDS011;18083;50.560;7.262;2023-05-07T11:40:28;2.87;;;1.30;;
26484;SDS011;18083;50.560;7.262;2023-05-07T11:42:55;2.02;;;1.57;;
26484;SDS011;18083;50.560;7.262;2023-05-07T11:45:23;2.58;;;1.20;;
26484;SDS011;18083;50.560;7.262;2023-05-07T11:47:54;1.75;;;1.52;;
26484;SDS011;18083;50.560;7.262;2023-05-07T11:50:21;2.85;;;1.10;;
26484;SDS011;18083;50.560;7.262;2023-05-07T11:52:51;1.85;;;1.35;;
26484;SDS011;18083;50.560;7.262;2023-05-07T11:55:19;1.12;;;1.12;;
26484;SDS011;18083;50.560;7.262;2023-05-07T11:57:46;1.40;;;1.30;;
26484;SDS011;18083;50.560;7.262;2023-05-07T12:00:15;4.50;;;1.30;;
26484;SDS011;18083;50.560;7.262;2023-05-07T12:02:44;1.65;;;1.55;;
26484;SDS011;18083;50.560;7.262;2023-05-07T12:05:11;2.95;;;1.37;;
26484;SDS011;18083;50.560;7.262;2023-05-07T12:07:39;2.42;;;1.10;;
26484;SDS011;18083;50.560;7.262;2023-05-07T12:10:06;1.85;;;1.10;;
26484;SDS011;18083;50.560;7.262;2023-05-07T12:12:45;1.20;;;1.10;;
26484;SDS011;18083;50.560;7.262;2023-05-07T12:15:15;1.10;;;1.05;;
26484;SDS011;18083;50.560;7.262;2023-05-07T12:17:40;1.20;;;1.10;;
26484;SDS011;18083;50.560;7.262;2023-05-07T12:20:08;1.98;;;1.30;;
26484;SDS011;18083;50.560;7.262;2023-05-07T12:22:35;6.08;;;1.85;;
26484;SDS011;18083;50.560;7.262;2023-05-07T12:25:03;1.45;;;1.35;;
26484;SDS011;18083;50.560;7.262;2023-05-07T12:27:31;4.92;;;1.25;;
26484;SDS011;18083;50.560;7.262;2023-05-07T12:29:59;2.05;;;1.60;;
26484;SDS011;18083;50.560;7.262;2023-05-07T12:32:26;1.50;;;0.80;;
26484;SDS011;18083;50.560;7.262;2023-05-07T12:34:54;1.12;;;1.02;;
26484;SDS011;18083;50.560;7.262;2023-05-07T12:37:24;2.00;;;1.27;;
26484;SDS011;18083;50.560;7.262;2023-05-07T12:40:05;2.42;;;1.12;;
26484;SDS011;18083;50.560;7.262;2023-05-07T12:42:36;1.35;;;1.20;;
26484;SDS011;18083;50.560;7.262;2023-05-07T12:45:10;1.52;;;1.40;;
26484;SDS011;18083;50.560;7.262;2023-05-07T12:47:38;3.60;;;1.50;;
26484;SDS011;18083;50.560;7.262;2023-05-07T12:50:06;3.62;;;1.35;;
26484;SDS011;18083;50.560;7.262;2023-05-07T12:52:33;1.40;;;1.30;;
26484;SDS011;18083;50.560;7.262;2023-05-07T12:55:05;2.08;;;1.62;;
26484;SDS011;18083;50.560;7.262;2023-05-07T12:57:40;2.67;;;1.50;;
26484;SDS011;18083;50.560;7.262;2023-05-07T13:00:07;2.10;;;1.37;;
26484;SDS011;18083;50.560;7.262;2023-05-07T13:02:38;1.92;;;1.27;;
26484;SDS011;18083;50.560;7.262;2023-05-07T13:05:06;1.50;;;1.42;;
26484;SDS011;18083;50.560;7.262;2023-05-07T13:07:34;1.50;;;1.40;;
26484;SDS011;18083;50.560;7.262;2023-05-07T13:10:01;1.70;;;1.42;;
26484;SDS011;18083;50.560;7.262;2023-05-07T13:12:28;1.75;;;1.65;;
26484;SDS011;18083;50.560;7.262;2023-05-07T13:14:56;3.62;;;2.20;;
26484;SDS011;18083;50.560;7.262;2023-05-07T13:17:23;1.87;;;1.77;;
26484;SDS011;18083;50.560;7.262;2023-05-07T13:19:50;2.10;;;1.90;;
26484;SDS011;18083;50.560;7.262;2023-05-07T13:22:18;2.80;;;1.90;;
26484;SDS011;18083;50.560;7.262;2023-05-07T13:24:45;3.33;;;2.02;;
26484;SDS011;18083;50.560;7.262;2023-05-07T13:27:12;3.85;;;1.77;;
26484;SDS011;18083;50.560;7.262;2023-05-07T13:29:40;2.50;;;2.30;;
26484;SDS011;18083;50.560;7.262;2023-05-07T13:32:07;4.67;;;3.27;;
26484;SDS011;18083;50.560;7.262;2023-05-07T13:34:34;5.65;;;5.15;;
26484;SDS011;18083;50.560;7.262;2023-05-07T13:37:03;2.83;;;2.33;;
26484;SDS011;18083;50.560;7.262;2023-05-07T13:39:30;2.12;;;2.02;;
26484;SDS011;18083;50.560;7.262;2023-05-07T13:41:57;3.10;;;2.42;;
26484;SDS011;18083;50.560;7.262;2023-05-07T13:44:25;3.20;;;2.47;;
26484;SDS011;18083;50.560;7.262;2023-05-07T13:46:52;2.25;;;2.08;;
26484;SDS011;18083;50.560;7.262;2023-05-07T13:49:19;5.12;;;4.40;;
26484;SDS011;18083;50.560;7.262;2023-05-07T13:51:46;7.05;;;3.10;;
26484;SDS011;18083;50.560;7.262;2023-05-07T13:54:14;3.02;;;2.47;;
26484;SDS011;18083;50.560;7.262;2023-05-07T13:56:42;3.87;;;2.22;;
26484;SDS011;18083;50.560;7.262;2023-05-07T13:59:09;2.33;;;2.12;;
26484;SDS011;18083;50.560;7.262;2023-05-07T14:01:36;2.20;;;2.08;;
26484;SDS011;18083;50.560;7.262;2023-05-07T14:04:04;3.30;;;2.33;;
26484;SDS011;18083;50.560;7.262;2023-05-07T14:06:31;2.90;;;2.17;;
26484;SDS011;18083;50.560;7.262;2023-05-07T14:08:58;3.08;;;2.77;;
26484;SDS011;18083;50.560;7.262;2023-05-07T14:11:26;3.30;;;1.85;;
26484;SDS011;18083;50.560;7.262;2023-05-07T14:13:53;4.03;;;3.67;;
26484;SDS011;18083;50.560;7.262;2023-05-07T14:16:21;2.77;;;2.55;;
26484;SDS011;18083;50.560;7.262;2023-05-07T14:18:48;4.42;;;2.98;;
26484;SDS011;18083;50.560;7.262;2023-05-07T14:21:15;2.90;;;2.58;;
26484;SDS011;18083;50.560;7.262;2023-05-07T14:23:42;2.45;;;2.25;;
26484;SDS011;18083;50.560;7.262;2023-05-07T14:26:10;3.35;;;1.95;;
26484;SDS011;18083;50.560;7.262;2023-05-07T14:28:37;3.17;;;2.85;;
26484;SDS011;18083;50.560;7.262;2023-05-07T14:31:05;4.12;;;2.85;;
26484;SDS011;18083;50.560;7.262;2023-05-07T14:33:33;5.05;;;3.12;;
26484;SDS011;18083;50.560;7.262;2023-05-07T14:36:00;2.72;;;2.50;;
26484;SDS011;18083;50.560;7.262;2023-05-07T14:38:29;4.33;;;3.12;;
26484;SDS011;18083;50.560;7.262;2023-05-07T14:40:58;4.15;;;2.47;;
26484;SDS011;18083;50.560;7.262;2023-05-07T14:43:25;2.42;;;2.22;;
26484;SDS011;18083;50.560;7.262;2023-05-07T14:45:52;3.47;;;2.45;;
26484;SDS011;18083;50.560;7.262;2023-05-07T14:48:20;6.62;;;3.02;;
26484;SDS011;18083;50.560;7.262;2023-05-07T14:50:47;3.17;;;2.77;;
26484;SDS011;18083;50.560;7.262;2023-05-07T14:53:15;3.52;;;2.30;;
26484;SDS011;18083;50.560;7.262;2023-05-07T14:55:42;2.65;;;2.40;;
26484;SDS011;18083;50.560;7.262;2023-05-07T14:58:10;3.30;;;2.42;;
26484;SDS011;18083;50.560;7.262;2023-05-07T15:00:38;5.35;;;2.27;;
26484;SDS011;18083;50.560;7.262;2023-05-07T15:03:06;3.02;;;2.33;;
26484;SDS011;18083;50.560;7.262;2023-05-07T15:05:34;3.77;;;2.58;;
26484;SDS011;18083;50.560;7.262;2023-05-07T15:08:01;3.67;;;2.30;;
26484;SDS011;18083;50.560;7.262;2023-05-07T15:10:29;10.80;;;2.62;;
26484;SDS011;18083;50.560;7.262;2023-05-07T15:12:56;4.15;;;2.42;;
26484;SDS011;18083;50.560;7.262;2023-05-07T15:15:23;7.58;;;2.58;;